sensor_id;sensor_type;location;lat;lon;timestamp;temperature;humidity
20364;DHT22;10340;53.664;9.908;2022-07-06T00:01:53;16.00;99.90
20364;DHT22;10340;53.664;9.908;2022-07-06T00:04:20;15.90;99.90
20364;DHT22;10340;53.664;9.908;2022-07-06T00:06:48;15.90;99.90
20364;DHT22;10340;53.664;9.908;2022-07-06T00:09:15;15.90;99.90
20364;DHT22;10340;53.664;9.908;2022-07-06T00:11:42;16.00;99.90
20364;DHT22;10340;53.664;9.908;2022-07-06T00:14:09;16.00;99.90
20364;DHT22;10340;53.664;9.908;2022-07-06T00:16:36;15.90;99.90
20364;DHT22;10340;53.664;9.908;2022-07-06T00:19:03;15.90;99.90
20364;DHT22;10340;53.664;9.908;2022-07-06T00:21:30;15.90;99.90
20364;DHT22;10340;53.664;9.908;2022-07-06T00:23:58;16.00;99.90
20364;DHT22;10340;53.664;9.908;2022-07-06T00:26:25;16.00;99.90
20364;DHT22;10340;53.664;9.908;2022-07-06T00:28:52;16.00;99.90
20364;DHT22;10340;53.664;9.908;2022-07-06T00:31:19;16.00;99.90
20364;DHT22;10340;53.664;9.908;2022-07-06T00:33:46;16.00;99.90
20364;DHT22;10340;53.664;9.908;2022-07-06T00:36:12;16.00;99.90
20364;DHT22;10340;53.664;9.908;2022-07-06T00:38:39;16.00;99.90
20364;DHT22;10340;53.664;9.908;2022-07-06T00:41:08;16.00;99.90
20364;DHT22;10340;53.664;9.908;2022-07-06T00:43:48;16.00;99.90
20364;DHT22;10340;53.664;9.908;2022-07-06T00:46:15;16.10;99.90
20364;DHT22;10340;53.664;9.908;2022-07-06T00:48:42;16.10;99.90
20364;DHT22;10340;53.664;9.908;2022-07-06T00:51:10;16.00;99.90
20364;DHT22;10340;53.664;9.908;2022-07-06T00:53:37;16.00;99.90
20364;DHT22;10340;53.664;9.908;2022-07-06T00:56:05;16.00;99.90
20364;DHT22;10340;53.664;9.908;2022-07-06T00:58:33;16.00;99.90
20364;DHT22;10340;53.664;9.908;2022-07-06T01:01:00;16.00;99.90
20364;DHT22;10340;53.664;9.908;2022-07-06T01:03:27;15.90;99.90
20364;DHT22;10340;53.664;9.908;2022-07-06T01:05:54;15.90;99.90
20364;DHT22;10340;53.664;9.908;2022-07-06T01:08:21;15.90;99.90
20364;DHT22;10340;53.664;9.908;2022-07-06T01:10:48;15.80;99.90
20364;DHT22;10340;53.664;9.908;2022-07-06T01:13:15;15.80;99.90
20364;DHT22;10340;53.664;9.908;2022-07-06T01:15:43;15.80;99.90
20364;DHT22;10340;53.664;9.908;2022-07-06T01:18:10;15.80;99.90
20364;DHT22;10340;53.664;9.908;2022-07-06T01:20:39;15.70;99.90
20364;DHT22;10340;53.664;9.908;2022-07-06T01:23:06;15.70;99.90
20364;DHT22;10340;53.664;9.908;2022-07-06T01:25:33;15.60;99.90
20364;DHT22;10340;53.664;9.908;2022-07-06T01:28:00;15.60;99.90
20364;DHT22;10340;53.664;9.908;2022-07-06T01:30:27;15.50;99.90
20364;DHT22;10340;53.664;9.908;2022-07-06T01:32:53;15.50;99.90
20364;DHT22;10340;53.664;9.908;2022-07-06T01:35:20;15.50;99.90
20364;DHT22;10340;53.664;9.908;2022-07-06T01:37:49;15.50;99.90
20364;DHT22;10340;53.664;9.908;2022-07-06T01:40:16;15.60;99.90
20364;DHT22;10340;53.664;9.908;2022-07-06T01:42:43;15.60;99.90
20364;DHT22;10340;53.664;9.908;2022-07-06T01:45:11;15.60;99.90
20364;DHT22;10340;53.664;9.908;2022-07-06T01:47:37;15.60;99.90
20364;DHT22;10340;53.664;9.908;2022-07-06T01:50:07;15.60;99.90
20364;DHT22;10340;53.664;9.908;2022-07-06T01:52:34;15.60;99.90
20364;DHT22;10340;53.664;9.908;2022-07-06T01:55:03;15.60;99.90
20364;DHT22;10340;53.664;9.908;2022-07-06T01:57:30;15.60;99.90
20364;DHT22;10340;53.664;9.908;2022-07-06T01:59:56;15.50;99.90
20364;DHT22;10340;53.664;9.908;2022-07-06T02:02:23;15.30;99.90
20364;DHT22;10340;53.664;9.908;2022-07-06T02:04:50;15.20;99.90
20364;DHT22;10340;53.664;9.908;2022-07-06T02:07:17;15.20;99.90
20364;DHT22;10340;53.664;9.908;2022-07-06T02:09:44;15.10;99.90
20364;DHT22;10340;53.664;9.908;2022-07-06T02:12:12;15.10;99.90
20364;DHT22;10340;53.664;9.908;2022-07-06T02:14:39;15.00;99.90
20364;DHT22;10340;53.664;9.908;2022-07-06T02:17:06;14.90;99.90
20364;DHT22;10340;53.664;9.908;2022-07-06T02:19:33;14.90;99.90
20364;DHT22;10340;53.664;9.908;2022-07-06T02:22:00;14.90;99.90
20364;DHT22;10340;53.664;9.908;2022-07-06T02:24:27;14.90;99.90
20364;DHT22;10340;53.664;9.908;2022-07-06T02:26:54;15.00;99.90
20364;DHT22;10340;53.664;9.908;2022-07-06T02:29:22;15.00;99.90
20364;DHT22;10340;53.664;9.908;2022-07-06T02:31:49;15.10;99.90
20364;DHT22;10340;53.664;9.908;2022-07-06T02:34:15;15.20;99.90
20364;DHT22;10340;53.664;9.908;2022-07-06T02:36:42;15.10;99.90
20364;DHT22;10340;53.664;9.908;2022-07-06T02:39:09;15.10;99.90
20364;DHT22;10340;53.664;9.908;2022-07-06T02:41:36;15.10;99.90
20364;DHT22;10340;53.664;9.908;2022-07-06T02:44:03;15.10;99.90
20364;DHT22;10340;53.664;9.908;2022-07-06T02:46:32;15.20;99.90
20364;DHT22;10340;53.664;9.908;2022-07-06T02:48:58;15.20;99.90
20364;DHT22;10340;53.664;9.908;2022-07-06T02:51:25;15.10;99.90
20364;DHT22;10340;53.664;9.908;2022-07-06T02:53:52;15.20;99.90
20364;DHT22;10340;53.664;9.908;2022-07-06T02:56:19;15.30;99.90
20364;DHT22;10340;53.664;9.908;2022-07-06T02:58:46;15.30;99.90
20364;DHT22;10340;53.664;9.908;2022-07-06T03:01:13;15.30;99.90
20364;DHT22;10340;53.664;9.908;2022-07-06T03:03:41;15.40;99.90
20364;DHT22;10340;53.664;9.908;2022-07-06T03:06:08;15.40;99.90
20364;DHT22;10340;53.664;9.908;2022-07-06T03:08:35;15.40;99.90
20364;DHT22;10340;53.664;9.908;2022-07-06T03:11:02;15.40;99.90
20364;DHT22;10340;53.664;9.908;2022-07-06T03:13:29;15.50;99.90
20364;DHT22;10340;53.664;9.908;2022-07-06T03:15:55;15.50;99.90
20364;DHT22;10340;53.664;9.908;2022-07-06T03:18:22;15.60;99.90
20364;DHT22;10340;53.664;9.908;2022-07-06T03:20:51;15.70;99.90
20364;DHT22;10340;53.664;9.908;2022-07-06T03:23:18;15.80;99.90
20364;DHT22;10340;53.664;9.908;2022-07-06T03:25:45;15.80;99.90
20364;DHT22;10340;53.664;9.908;2022-07-06T03:28:12;15.80;99.90
20364;DHT22;10340;53.664;9.908;2022-07-06T03:30:38;15.80;99.90
20364;DHT22;10340;53.664;9.908;2022-07-06T03:33:05;15.80;99.90
20364;DHT22;10340;53.664;9.908;2022-07-06T03:35:32;15.90;99.90
20364;DHT22;10340;53.664;9.908;2022-07-06T03:38:00;15.90;99.90
20364;DHT22;10340;53.664;9.908;2022-07-06T03:40:28;15.90;99.90
20364;DHT22;10340;53.664;9.908;2022-07-06T03:42:55;15.90;99.90
20364;DHT22;10340;53.664;9.908;2022-07-06T03:45:22;15.90;99.90
20364;DHT22;10340;53.664;9.908;2022-07-06T03:47:49;15.90;99.90
20364;DHT22;10340;53.664;9.908;2022-07-06T03:50:15;15.80;99.90
20364;DHT22;10340;53.664;9.908;2022-07-06T03:52:42;15.80;99.90
20364;DHT22;10340;53.664;9.908;2022-07-06T03:55:11;15.60;99.90
20364;DHT22;10340;53.664;9.908;2022-07-06T03:57:38;15.50;99.90
20364;DHT22;10340;53.664;9.908;2022-07-06T04:00:07;15.40;99.90
20364;DHT22;10340;53.664;9.908;2022-07-06T04:02:34;15.30;99.90
20364;DHT22;10340;53.664;9.908;2022-07-06T04:05:01;15.20;99.90
20364;DHT22;10340;53.664;9.908;2022-07-06T04:07:28;15.20;99.90
20364;DHT22;10340;53.664;9.908;2022-07-06T04:09:56;15.30;99.90
20364;DHT22;10340;53.664;9.908;2022-07-06T04:12:24;15.40;99.90
20364;DHT22;10340;53.664;9.908;2022-07-06T04:14:51;15.40;99.90
20364;DHT22;10340;53.664;9.908;2022-07-06T04:17:17;15.40;99.90
20364;DHT22;10340;53.664;9.908;2022-07-06T04:20:02;15.40;99.90
20364;DHT22;10340;53.664;9.908;2022-07-06T04:22:29;15.50;99.90
20364;DHT22;10340;53.664;9.908;2022-07-06T04:24:56;15.50;99.90
20364;DHT22;10340;53.664;9.908;2022-07-06T04:27:24;15.40;99.90
20364;DHT22;10340;53.664;9.908;2022-07-06T04:29:53;15.40;99.90
20364;DHT22;10340;53.664;9.908;2022-07-06T04:32:20;15.30;99.90
20364;DHT22;10340;53.664;9.908;2022-07-06T04:34:46;15.30;99.90
20364;DHT22;10340;53.664;9.908;2022-07-06T04:37:13;15.40;99.90
20364;DHT22;10340;53.664;9.908;2022-07-06T04:39:40;15.50;99.90
20364;DHT22;10340;53.664;9.908;2022-07-06T04:42:07;15.60;99.90
20364;DHT22;10340;53.664;9.908;2022-07-06T04:44:35;15.70;99.90
20364;DHT22;10340;53.664;9.908;2022-07-06T04:47:03;15.70;99.90
20364;DHT22;10340;53.664;9.908;2022-07-06T04:49:30;15.80;99.90
20364;DHT22;10340;53.664;9.908;2022-07-06T04:51:56;15.80;99.90
20364;DHT22;10340;53.664;9.908;2022-07-06T04:54:23;15.70;99.90
20364;DHT22;10340;53.664;9.908;2022-07-06T04:56:50;15.70;99.90
20364;DHT22;10340;53.664;9.908;2022-07-06T04:59:18;15.60;99.90
20364;DHT22;10340;53.664;9.908;2022-07-06T05:01:46;15.60;99.90
20364;DHT22;10340;53.664;9.908;2022-07-06T05:04:13;15.60;99.90
20364;DHT22;10340;53.664;9.908;2022-07-06T05:06:40;15.60;99.90
20364;DHT22;10340;53.664;9.908;2022-07-06T05:09:07;15.50;99.90
20364;DHT22;10340;53.664;9.908;2022-07-06T05:11:34;15.50;99.90
20364;DHT22;10340;53.664;9.908;2022-07-06T05:14:01;15.60;99.90
20364;DHT22;10340;53.664;9.908;2022-07-06T05:16:28;15.60;99.90
20364;DHT22;10340;53.664;9.908;2022-07-06T05:18:56;15.60;99.90
20364;DHT22;10340;53.664;9.908;2022-07-06T05:21:23;15.60;99.90
20364;DHT22;10340;53.664;9.908;2022-07-06T05:23:50;15.50;99.90
20364;DHT22;10340;53.664;9.908;2022-07-06T05:26:17;15.40;99.90
20364;DHT22;10340;53.664;9.908;2022-07-06T05:28:44;15.30;99.90
20364;DHT22;10340;53.664;9.908;2022-07-06T05:31:11;15.20;99.90
20364;DHT22;10340;53.664;9.908;2022-07-06T05:33:37;15.20;99.90
20364;DHT22;10340;53.664;9.908;2022-07-06T05:36:06;15.10;99.90
20364;DHT22;10340;53.664;9.908;2022-07-06T05:38:33;15.10;99.90
20364;DHT22;10340;53.664;9.908;2022-07-06T05:41:00;15.10;99.90
20364;DHT22;10340;53.664;9.908;2022-07-06T05:43:27;15.10;99.90
20364;DHT22;10340;53.664;9.908;2022-07-06T05:45:54;15.00;99.90
20364;DHT22;10340;53.664;9.908;2022-07-06T05:48:21;14.90;99.90
20364;DHT22;10340;53.664;9.908;2022-07-06T05:51:06;14.90;99.90
20364;DHT22;10340;53.664;9.908;2022-07-06T05:53:33;14.90;99.90
20364;DHT22;10340;53.664;9.908;2022-07-06T05:56:00;14.90;99.90
20364;DHT22;10340;53.664;9.908;2022-07-06T05:58:27;14.90;99.90
20364;DHT22;10340;53.664;9.908;2022-07-06T06:00:54;14.90;99.90
20364;DHT22;10340;53.664;9.908;2022-07-06T06:03:21;15.00;99.90
20364;DHT22;10340;53.664;9.908;2022-07-06T06:05:48;15.20;99.90
20364;DHT22;10340;53.664;9.908;2022-07-06T06:08:16;15.20;99.90
20364;DHT22;10340;53.664;9.908;2022-07-06T06:10:43;15.20;99.90
20364;DHT22;10340;53.664;9.908;2022-07-06T06:13:10;15.40;99.90
20364;DHT22;10340;53.664;9.908;2022-07-06T06:15:37;15.50;99.90
20364;DHT22;10340;53.664;9.908;2022-07-06T06:18:04;15.50;99.90
20364;DHT22;10340;53.664;9.908;2022-07-06T06:20:31;15.40;99.90
20364;DHT22;10340;53.664;9.908;2022-07-06T06:22:58;15.30;99.90
20364;DHT22;10340;53.664;9.908;2022-07-06T06:25:31;15.40;99.90
20364;DHT22;10340;53.664;9.908;2022-07-06T06:27:58;15.40;99.90
20364;DHT22;10340;53.664;9.908;2022-07-06T06:30:25;15.40;99.90
20364;DHT22;10340;53.664;9.908;2022-07-06T06:33:07;15.60;99.90
20364;DHT22;10340;53.664;9.908;2022-07-06T06:35:34;15.70;99.90
20364;DHT22;10340;53.664;9.908;2022-07-06T06:38:01;15.80;99.90
20364;DHT22;10340;53.664;9.908;2022-07-06T06:40:29;15.90;99.90
20364;DHT22;10340;53.664;9.908;2022-07-06T06:42:56;16.00;99.90
20364;DHT22;10340;53.664;9.908;2022-07-06T06:45:23;16.10;99.90
20364;DHT22;10340;53.664;9.908;2022-07-06T06:47:50;16.10;99.90
20364;DHT22;10340;53.664;9.908;2022-07-06T06:50:17;16.10;99.90
20364;DHT22;10340;53.664;9.908;2022-07-06T06:52:44;16.20;99.90
20364;DHT22;10340;53.664;9.908;2022-07-06T06:55:11;16.20;99.90
20364;DHT22;10340;53.664;9.908;2022-07-06T06:57:39;16.30;99.90
20364;DHT22;10340;53.664;9.908;2022-07-06T07:00:07;16.40;99.90
20364;DHT22;10340;53.664;9.908;2022-07-06T07:02:35;16.50;99.90
20364;DHT22;10340;53.664;9.908;2022-07-06T07:05:05;16.50;99.90
20364;DHT22;10340;53.664;9.908;2022-07-06T07:07:32;16.40;99.90
20364;DHT22;10340;53.664;9.908;2022-07-06T07:09:59;16.40;99.90
20364;DHT22;10340;53.664;9.908;2022-07-06T07:12:28;16.40;99.90
20364;DHT22;10340;53.664;9.908;2022-07-06T07:14:58;16.30;99.90
20364;DHT22;10340;53.664;9.908;2022-07-06T07:17:26;16.40;99.90
20364;DHT22;10340;53.664;9.908;2022-07-06T07:19:55;16.50;99.90
20364;DHT22;10340;53.664;9.908;2022-07-06T07:22:23;16.60;99.90
20364;DHT22;10340;53.664;9.908;2022-07-06T07:24:51;16.60;99.90
20364;DHT22;10340;53.664;9.908;2022-07-06T07:27:17;16.60;99.90
20364;DHT22;10340;53.664;9.908;2022-07-06T07:29:44;16.50;99.90
20364;DHT22;10340;53.664;9.908;2022-07-06T07:32:13;16.50;99.90
20364;DHT22;10340;53.664;9.908;2022-07-06T07:34:40;16.60;99.90
20364;DHT22;10340;53.664;9.908;2022-07-06T07:37:07;16.70;99.90
20364;DHT22;10340;53.664;9.908;2022-07-06T07:39:34;16.80;99.90
20364;DHT22;10340;53.664;9.908;2022-07-06T07:42:00;16.70;99.90
20364;DHT22;10340;53.664;9.908;2022-07-06T07:44:27;16.70;99.90
20364;DHT22;10340;53.664;9.908;2022-07-06T07:46:54;16.80;99.90
20364;DHT22;10340;53.664;9.908;2022-07-06T07:49:23;16.80;99.90
20364;DHT22;10340;53.664;9.908;2022-07-06T07:51:50;16.90;99.90
20364;DHT22;10340;53.664;9.908;2022-07-06T07:54:17;16.80;99.90
20364;DHT22;10340;53.664;9.908;2022-07-06T07:56:44;16.80;99.90
20364;DHT22;10340;53.664;9.908;2022-07-06T07:59:11;16.80;99.90
20364;DHT22;10340;53.664;9.908;2022-07-06T08:01:38;16.90;99.90
20364;DHT22;10340;53.664;9.908;2022-07-06T08:04:05;16.90;99.90
20364;DHT22;10340;53.664;9.908;2022-07-06T08:06:34;16.90;99.90
20364;DHT22;10340;53.664;9.908;2022-07-06T08:09:02;17.10;99.90
20364;DHT22;10340;53.664;9.908;2022-07-06T08:11:30;17.20;99.90
20364;DHT22;10340;53.664;9.908;2022-07-06T08:13:57;17.10;99.90
20364;DHT22;10340;53.664;9.908;2022-07-06T08:16:24;17.10;99.90
20364;DHT22;10340;53.664;9.908;2022-07-06T08:18:51;17.30;99.90
20364;DHT22;10340;53.664;9.908;2022-07-06T08:21:18;17.40;99.90
20364;DHT22;10340;53.664;9.908;2022-07-06T08:23:46;17.40;99.90
20364;DHT22;10340;53.664;9.908;2022-07-06T08:26:13;17.30;99.90
20364;DHT22;10340;53.664;9.908;2022-07-06T08:28:40;17.20;99.90
20364;DHT22;10340;53.664;9.908;2022-07-06T08:31:07;17.10;99.90
20364;DHT22;10340;53.664;9.908;2022-07-06T08:33:34;17.00;99.90
20364;DHT22;10340;53.664;9.908;2022-07-06T08:36:01;16.90;99.90
20364;DHT22;10340;53.664;9.908;2022-07-06T08:38:28;16.80;99.90
20364;DHT22;10340;53.664;9.908;2022-07-06T08:40:57;16.30;99.90
20364;DHT22;10340;53.664;9.908;2022-07-06T08:43:24;16.00;99.90
20364;DHT22;10340;53.664;9.908;2022-07-06T08:45:53;15.80;99.90
20364;DHT22;10340;53.664;9.908;2022-07-06T08:48:25;15.80;99.90
20364;DHT22;10340;53.664;9.908;2022-07-06T08:50:54;16.00;99.90
20364;DHT22;10340;53.664;9.908;2022-07-06T08:53:21;16.00;99.90
20364;DHT22;10340;53.664;9.908;2022-07-06T08:55:49;16.30;99.90
20364;DHT22;10340;53.664;9.908;2022-07-06T08:58:18;16.40;99.90
20364;DHT22;10340;53.664;9.908;2022-07-06T09:00:45;16.60;99.90
20364;DHT22;10340;53.664;9.908;2022-07-06T09:03:12;16.60;99.90
20364;DHT22;10340;53.664;9.908;2022-07-06T09:05:40;16.70;99.90
20364;DHT22;10340;53.664;9.908;2022-07-06T09:08:07;16.90;99.90
20364;DHT22;10340;53.664;9.908;2022-07-06T09:10:34;16.90;99.90
20364;DHT22;10340;53.664;9.908;2022-07-06T09:13:04;17.00;99.90
20364;DHT22;10340;53.664;9.908;2022-07-06T09:15:33;16.90;99.90
20364;DHT22;10340;53.664;9.908;2022-07-06T09:18:01;17.00;99.90
20364;DHT22;10340;53.664;9.908;2022-07-06T09:20:28;17.00;99.90
20364;DHT22;10340;53.664;9.908;2022-07-06T09:22:58;17.30;99.90
20364;DHT22;10340;53.664;9.908;2022-07-06T09:25:26;17.50;99.90
20364;DHT22;10340;53.664;9.908;2022-07-06T09:27:55;17.60;99.90
20364;DHT22;10340;53.664;9.908;2022-07-06T09:30:24;17.70;99.90
20364;DHT22;10340;53.664;9.908;2022-07-06T09:32:54;17.80;99.90
20364;DHT22;10340;53.664;9.908;2022-07-06T09:35:23;18.00;99.90
20364;DHT22;10340;53.664;9.908;2022-07-06T09:38:05;18.00;99.90
20364;DHT22;10340;53.664;9.908;2022-07-06T09:40:34;18.00;99.90
20364;DHT22;10340;53.664;9.908;2022-07-06T09:43:08;18.10;99.90
20364;DHT22;10340;53.664;9.908;2022-07-06T09:45:35;18.30;99.90
20364;DHT22;10340;53.664;9.908;2022-07-06T09:48:09;18.40;99.90
20364;DHT22;10340;53.664;9.908;2022-07-06T09:50:40;18.30;99.90
20364;DHT22;10340;53.664;9.908;2022-07-06T09:53:08;18.20;99.90
20364;DHT22;10340;53.664;9.908;2022-07-06T09:55:34;18.00;99.90
20364;DHT22;10340;53.664;9.908;2022-07-06T09:58:02;17.80;99.90
20364;DHT22;10340;53.664;9.908;2022-07-06T10:00:30;17.50;99.90
20364;DHT22;10340;53.664;9.908;2022-07-06T10:02:57;17.20;99.90
20364;DHT22;10340;53.664;9.908;2022-07-06T10:05:26;16.90;99.90
20364;DHT22;10340;53.664;9.908;2022-07-06T10:07:57;16.70;99.90
20364;DHT22;10340;53.664;9.908;2022-07-06T10:10:25;16.60;99.90
20364;DHT22;10340;53.664;9.908;2022-07-06T10:12:55;16.50;99.90
20364;DHT22;10340;53.664;9.908;2022-07-06T10:15:23;16.40;99.90
20364;DHT22;10340;53.664;9.908;2022-07-06T10:17:51;16.30;99.90
20364;DHT22;10340;53.664;9.908;2022-07-06T10:20:19;16.20;99.90
20364;DHT22;10340;53.664;9.908;2022-07-06T10:22:49;16.10;99.90
20364;DHT22;10340;53.664;9.908;2022-07-06T10:25:17;16.10;99.90
20364;DHT22;10340;53.664;9.908;2022-07-06T10:27:46;16.10;99.90
20364;DHT22;10340;53.664;9.908;2022-07-06T10:30:14;16.10;99.90
20364;DHT22;10340;53.664;9.908;2022-07-06T10:32:43;16.10;99.90
20364;DHT22;10340;53.664;9.908;2022-07-06T10:35:11;16.20;99.90
20364;DHT22;10340;53.664;9.908;2022-07-06T10:37:39;16.40;99.90
20364;DHT22;10340;53.664;9.908;2022-07-06T10:40:08;16.50;99.90
20364;DHT22;10340;53.664;9.908;2022-07-06T10:42:57;16.60;99.90
20364;DHT22;10340;53.664;9.908;2022-07-06T10:45:55;16.70;99.90
20364;DHT22;10340;53.664;9.908;2022-07-06T10:48:31;16.90;99.90
20364;DHT22;10340;53.664;9.908;2022-07-06T10:51:00;17.00;99.90
20364;DHT22;10340;53.664;9.908;2022-07-06T10:53:31;17.20;99.90
20364;DHT22;10340;53.664;9.908;2022-07-06T10:56:03;17.40;99.90
20364;DHT22;10340;53.664;9.908;2022-07-06T10:58:38;17.40;99.90
20364;DHT22;10340;53.664;9.908;2022-07-06T11:01:07;17.40;99.90
20364;DHT22;10340;53.664;9.908;2022-07-06T11:03:37;17.50;99.90
20364;DHT22;10340;53.664;9.908;2022-07-06T11:06:10;17.70;99.90
20364;DHT22;10340;53.664;9.908;2022-07-06T11:08:47;17.80;99.90
20364;DHT22;10340;53.664;9.908;2022-07-06T11:11:17;18.00;99.90
20364;DHT22;10340;53.664;9.908;2022-07-06T11:13:48;18.00;99.90
20364;DHT22;10340;53.664;9.908;2022-07-06T11:16:16;18.10;99.90
20364;DHT22;10340;53.664;9.908;2022-07-06T11:18:47;18.30;99.90
20364;DHT22;10340;53.664;9.908;2022-07-06T11:21:19;18.50;99.90
20364;DHT22;10340;53.664;9.908;2022-07-06T11:23:48;18.40;99.90
20364;DHT22;10340;53.664;9.908;2022-07-06T11:26:17;18.30;99.90
20364;DHT22;10340;53.664;9.908;2022-07-06T11:28:46;18.20;99.90
20364;DHT22;10340;53.664;9.908;2022-07-06T11:31:15;18.20;99.90
20364;DHT22;10340;53.664;9.908;2022-07-06T11:33:45;18.10;99.90
20364;DHT22;10340;53.664;9.908;2022-07-06T11:36:13;18.10;99.90
20364;DHT22;10340;53.664;9.908;2022-07-06T11:38:41;18.30;99.90
20364;DHT22;10340;53.664;9.908;2022-07-06T11:41:08;18.60;99.90
20364;DHT22;10340;53.664;9.908;2022-07-06T11:43:38;18.90;99.90
20364;DHT22;10340;53.664;9.908;2022-07-06T11:46:26;19.40;99.90
20364;DHT22;10340;53.664;9.908;2022-07-06T11:48:56;19.80;99.90
20364;DHT22;10340;53.664;9.908;2022-07-06T11:51:24;20.00;99.90
20364;DHT22;10340;53.664;9.908;2022-07-06T11:53:53;20.30;99.90
20364;DHT22;10340;53.664;9.908;2022-07-06T11:56:21;20.60;99.90
20364;DHT22;10340;53.664;9.908;2022-07-06T11:58:53;20.50;99.90
20364;DHT22;10340;53.664;9.908;2022-07-06T12:01:21;20.00;99.90
20364;DHT22;10340;53.664;9.908;2022-07-06T12:03:50;19.70;99.90
20364;DHT22;10340;53.664;9.908;2022-07-06T12:06:19;19.60;99.90
20364;DHT22;10340;53.664;9.908;2022-07-06T12:08:47;19.70;99.90
20364;DHT22;10340;53.664;9.908;2022-07-06T12:11:19;19.80;99.90
20364;DHT22;10340;53.664;9.908;2022-07-06T12:13:47;19.70;99.90
20364;DHT22;10340;53.664;9.908;2022-07-06T12:16:16;19.80;99.90
20364;DHT22;10340;53.664;9.908;2022-07-06T12:18:43;19.80;99.90
20364;DHT22;10340;53.664;9.908;2022-07-06T12:21:12;19.80;99.90
20364;DHT22;10340;53.664;9.908;2022-07-06T12:23:41;19.90;99.90
20364;DHT22;10340;53.664;9.908;2022-07-06T12:26:08;19.80;99.90
20364;DHT22;10340;53.664;9.908;2022-07-06T12:28:36;19.70;99.90
20364;DHT22;10340;53.664;9.908;2022-07-06T12:31:03;19.60;99.90
20364;DHT22;10340;53.664;9.908;2022-07-06T12:33:31;19.60;99.90
20364;DHT22;10340;53.664;9.908;2022-07-06T12:36:12;19.80;99.90
20364;DHT22;10340;53.664;9.908;2022-07-06T12:38:45;19.80;99.90
20364;DHT22;10340;53.664;9.908;2022-07-06T12:41:27;19.80;99.90
20364;DHT22;10340;53.664;9.908;2022-07-06T12:44:01;19.60;99.90
20364;DHT22;10340;53.664;9.908;2022-07-06T12:46:30;19.40;99.90
20364;DHT22;10340;53.664;9.908;2022-07-06T12:49:00;19.30;99.90
20364;DHT22;10340;53.664;9.908;2022-07-06T12:51:28;19.10;99.90
20364;DHT22;10340;53.664;9.908;2022-07-06T12:54:12;19.10;99.90
20364;DHT22;10340;53.664;9.908;2022-07-06T12:57:01;19.00;99.90
20364;DHT22;10340;53.664;9.908;2022-07-06T12:59:28;19.10;99.90
20364;DHT22;10340;53.664;9.908;2022-07-06T13:01:56;19.30;99.90
20364;DHT22;10340;53.664;9.908;2022-07-06T13:04:26;19.80;99.90
20364;DHT22;10340;53.664;9.908;2022-07-06T13:06:53;19.80;99.90
20364;DHT22;10340;53.664;9.908;2022-07-06T13:09:20;19.80;99.90
20364;DHT22;10340;53.664;9.908;2022-07-06T13:11:48;19.80;99.90
20364;DHT22;10340;53.664;9.908;2022-07-06T13:14:16;19.80;99.90
20364;DHT22;10340;53.664;9.908;2022-07-06T13:16:44;20.00;99.90
20364;DHT22;10340;53.664;9.908;2022-07-06T13:19:11;19.80;99.90
20364;DHT22;10340;53.664;9.908;2022-07-06T13:21:39;19.70;99.90
20364;DHT22;10340;53.664;9.908;2022-07-06T13:24:07;19.70;99.90
20364;DHT22;10340;53.664;9.908;2022-07-06T13:26:34;19.80;99.90
20364;DHT22;10340;53.664;9.908;2022-07-06T13:29:01;19.80;99.90
20364;DHT22;10340;53.664;9.908;2022-07-06T13:31:29;19.70;99.90
20364;DHT22;10340;53.664;9.908;2022-07-06T13:33:56;19.80;99.90
20364;DHT22;10340;53.664;9.908;2022-07-06T13:36:23;20.10;99.90
20364;DHT22;10340;53.664;9.908;2022-07-06T13:38:52;20.30;99.90
20364;DHT22;10340;53.664;9.908;2022-07-06T13:41:19;20.20;99.90
20364;DHT22;10340;53.664;9.908;2022-07-06T13:43:45;20.10;99.90
20364;DHT22;10340;53.664;9.908;2022-07-06T13:46:12;20.10;99.90
20364;DHT22;10340;53.664;9.908;2022-07-06T13:48:40;20.00;99.90
20364;DHT22;10340;53.664;9.908;2022-07-06T13:51:07;20.10;99.90
20364;DHT22;10340;53.664;9.908;2022-07-06T13:53:34;20.00;99.90
20364;DHT22;10340;53.664;9.908;2022-07-06T13:56:04;20.10;99.90
20364;DHT22;10340;53.664;9.908;2022-07-06T13:58:31;20.10;99.90
20364;DHT22;10340;53.664;9.908;2022-07-06T14:00:58;20.30;99.90
20364;DHT22;10340;53.664;9.908;2022-07-06T14:03:25;20.30;99.90
20364;DHT22;10340;53.664;9.908;2022-07-06T14:05:56;20.20;99.90
20364;DHT22;10340;53.664;9.908;2022-07-06T14:08:23;20.10;99.90
20364;DHT22;10340;53.664;9.908;2022-07-06T14:10:50;20.20;99.90
20364;DHT22;10340;53.664;9.908;2022-07-06T14:13:19;20.20;99.90
20364;DHT22;10340;53.664;9.908;2022-07-06T14:15:46;20.20;99.90
20364;DHT22;10340;53.664;9.908;2022-07-06T14:18:13;20.10;99.90
20364;DHT22;10340;53.664;9.908;2022-07-06T14:20:40;20.20;99.90
20364;DHT22;10340;53.664;9.908;2022-07-06T14:23:07;20.40;99.90
20364;DHT22;10340;53.664;9.908;2022-07-06T14:25:34;20.50;99.90
20364;DHT22;10340;53.664;9.908;2022-07-06T14:28:01;20.40;99.90
20364;DHT22;10340;53.664;9.908;2022-07-06T14:30:30;20.20;99.90
20364;DHT22;10340;53.664;9.908;2022-07-06T14:32:57;20.30;99.90
20364;DHT22;10340;53.664;9.908;2022-07-06T14:35:24;20.40;99.90
20364;DHT22;10340;53.664;9.908;2022-07-06T14:37:51;20.30;99.90
20364;DHT22;10340;53.664;9.908;2022-07-06T14:40:18;20.40;99.90
20364;DHT22;10340;53.664;9.908;2022-07-06T14:42:45;20.40;99.90
20364;DHT22;10340;53.664;9.908;2022-07-06T14:45:12;20.30;99.90
20364;DHT22;10340;53.664;9.908;2022-07-06T14:47:40;20.30;99.90
20364;DHT22;10340;53.664;9.908;2022-07-06T14:50:07;20.20;99.90
20364;DHT22;10340;53.664;9.908;2022-07-06T14:52:34;20.10;99.90
20364;DHT22;10340;53.664;9.908;2022-07-06T14:55:01;20.00;99.90
20364;DHT22;10340;53.664;9.908;2022-07-06T14:57:28;20.00;99.90
20364;DHT22;10340;53.664;9.908;2022-07-06T14:59:55;20.10;99.90
20364;DHT22;10340;53.664;9.908;2022-07-06T15:02:22;20.40;99.90
20364;DHT22;10340;53.664;9.908;2022-07-06T15:04:50;20.50;99.90
20364;DHT22;10340;53.664;9.908;2022-07-06T15:07:17;20.70;99.90
20364;DHT22;10340;53.664;9.908;2022-07-06T15:09:44;20.60;99.90
20364;DHT22;10340;53.664;9.908;2022-07-06T15:12:11;20.50;99.90
20364;DHT22;10340;53.664;9.908;2022-07-06T15:14:38;20.50;99.90
20364;DHT22;10340;53.664;9.908;2022-07-06T15:17:05;20.30;99.90
20364;DHT22;10340;53.664;9.908;2022-07-06T15:19:32;20.00;99.90
20364;DHT22;10340;53.664;9.908;2022-07-06T15:22:01;19.80;99.90
20364;DHT22;10340;53.664;9.908;2022-07-06T15:24:27;19.80;99.90
20364;DHT22;10340;53.664;9.908;2022-07-06T15:26:54;19.80;99.90
20364;DHT22;10340;53.664;9.908;2022-07-06T15:29:22;19.70;99.90
20364;DHT22;10340;53.664;9.908;2022-07-06T15:31:49;19.50;99.90
20364;DHT22;10340;53.664;9.908;2022-07-06T15:34:15;19.50;99.90
20364;DHT22;10340;53.664;9.908;2022-07-06T15:36:42;19.40;99.90